Time;durP1;ratioP1;P1;durP2;ratioP2;P2;SDS_P1;SDS_P2;PMS_P1;PMS_P2;Temp;Humidity;BMP_temperature;BMP_pressure;BME280_temperature;BME280_humidity;BME280_pressure;Samples;Min_cycle;Max_cycle;Signal;HPM_P1;HPM_P2
2023/11/29 05:06:12;;;;;;;1.20;1.00;;;22.20;57.80;;;;;;5111758;27;20520;-95
2023/11/29 05:08:39;;;;;;;1.23;1.00;;;22.20;57.80;;;;;;5111500;28;20463;-95
2023/11/29 05:11:06;;;;;;;1.33;1.03;;;22.20;57.80;;;;;;5111213;28;20435;-86
2023/11/29 05:13:33;;;;;;;1.33;1.23;;;22.20;57.70;;;;;;5111789;28;20434;-86
2023/11/29 05:16:01;;;;;;;1.20;1.00;;;22.20;57.60;;;;;;5111318;28;20441;-96
2023/11/29 05:18:28;;;;;;;1.30;1.10;;;22.20;57.70;;;;;;5111183;28;20461;-86
2023/11/29 05:20:55;;;;;;;1.30;0.93;;;22.20;57.60;;;;;;5110345;28;20438;-87
2023/11/29 05:23:23;;;;;;;1.10;1.00;;;22.30;57.60;;;;;;5110923;28;20434;-86
2023/11/29 05:25:50;;;;;;;1.17;0.90;;;22.30;57.70;;;;;;5110881;28;20508;-86
2023/11/29 05:28:17;;;;;;;1.20;0.90;;;22.30;57.60;;;;;;5110843;28;20435;-86
2023/11/29 05:30:44;;;;;;;1.30;0.93;;;22.30;57.60;;;;;;5111070;28;20814;-86
2023/11/29 05:33:10;;;;;;;1.20;0.90;;;22.30;57.60;;;;;;5111091;28;20791;-87
2023/11/29 05:35:37;;;;;;;1.00;0.83;;;22.30;57.60;;;;;;5110239;28;20443;-86
2023/11/29 05:38:04;;;;;;;1.80;1.00;;;22.30;57.60;;;;;;5109010;28;20435;-95
2023/11/29 05:40:32;;;;;;;1.27;1.17;;;22.30;57.70;;;;;;5109816;28;20949;-95
2023/11/29 05:42:59;;;;;;;1.40;1.00;;;22.40;57.70;;;;;;5109361;28;20439;-86
2023/11/29 05:45:26;;;;;;;1.30;1.20;;;22.30;57.60;;;;;;5109528;28;20486;-86
2023/11/29 05:47:53;;;;;;;1.10;1.00;;;22.30;57.60;;;;;;5109302;28;20458;-86
2023/11/29 05:50:19;;;;;;;1.07;0.90;;;22.30;57.60;;;;;;5108931;28;20454;-93
2023/11/29 05:52:46;;;;;;;1.20;1.00;;;22.40;57.70;;;;;;5110410;28;20960;-86
2023/11/29 05:55:15;;;;;;;1.10;1.00;;;22.40;57.60;;;;;;5110762;28;20438;-86
2023/11/29 05:57:45;;;;;;;1.30;1.20;;;22.40;57.60;;;;;;5110353;28;20921;-86
2023/11/29 06:00:14;;;;;;;1.20;1.00;;;22.40;57.70;;;;;;5110368;28;20435;-86
2023/11/29 06:02:41;;;;;;;1.20;1.00;;;22.40;57.60;;;;;;5110287;28;20523;-94
2023/11/29 06:05:09;;;;;;;1.00;0.90;;;22.40;57.60;;;;;;5109985;28;20490;-96
2023/11/29 06:07:36;;;;;;;1.20;1.00;;;22.40;57.50;;;;;;5110144;28;20449;-95
2023/11/29 06:10:04;;;;;;;1.00;0.80;;;22.50;57.60;;;;;;5109945;28;20813;-86
2023/11/29 06:12:32;;;;;;;1.70;1.13;;;22.40;57.60;;;;;;5110159;28;20439;-86
2023/11/29 06:15:04;;;;;;;1.20;1.00;;;22.40;57.50;;;;;;5110122;28;20530;-85
2023/11/29 06:17:31;;;;;;;1.10;0.83;;;22.40;57.50;;;;;;5096596;28;20470;-96
2023/11/29 06:19:58;;;;;;;1.20;1.00;;;22.40;57.50;;;;;;5096513;28;20519;-94
2023/11/29 06:22:25;;;;;;;1.30;1.00;;;22.40;57.50;;;;;;5096409;28;20446;-86
2023/11/29 06:24:53;;;;;;;1.30;0.90;;;22.40;57.50;;;;;;5096027;28;20479;-86
2023/11/29 06:27:19;;;;;;;1.40;1.10;;;22.40;57.60;;;;;;5096209;28;20438;-86
2023/11/29 06:29:46;;;;;;;1.20;0.93;;;22.40;57.60;;;;;;5096150;28;20439;-86
2023/11/29 06:32:14;;;;;;;1.07;0.83;;;22.40;57.50;;;;;;5096104;28;20442;-86
2023/11/29 06:34:41;;;;;;;1.30;1.17;;;22.40;57.50;;;;;;5096105;28;20439;-86
2023/11/29 06:37:08;;;;;;;1.63;1.10;;;22.40;57.60;;;;;;5096112;28;20443;-86
2023/11/29 06:39:35;;;;;;;1.00;0.80;;;22.40;57.50;;;;;;5095801;28;20482;-86
2023/11/29 06:42:01;;;;;;;1.17;0.93;;;22.40;57.50;;;;;;5096307;28;20774;-86
2023/11/29 06:44:28;;;;;;;1.43;1.10;;;22.40;57.50;;;;;;5095988;28;20942;-86
2023/11/29 06:46:57;;;;;;;1.20;1.00;;;22.50;57.60;;;;;;5095582;28;20463;-86
2023/11/29 06:49:25;;;;;;;1.40;0.93;;;22.50;57.60;;;;;;5095968;28;20848;-94
2023/11/29 06:51:52;;;;;;;1.30;1.20;;;22.50;57.50;;;;;;5095804;28;20438;-86
2023/11/29 06:54:19;;;;;;;1.00;0.80;;;22.50;57.50;;;;;;5095731;28;20432;-95
2023/11/29 06:56:47;;;;;;;1.10;0.93;;;22.50;57.50;;;;;;5095800;28;20796;-86
2023/11/29 06:59:14;;;;;;;1.43;1.10;;;22.50;57.50;;;;;;5095777;28;20478;-86
2023/11/29 07:01:41;;;;;;;1.30;0.90;;;22.50;57.50;;;;;;5095302;28;21003;-86
2023/11/29 07:04:08;;;;;;;1.50;1.00;;;22.50;57.50;;;;;;5095310;28;20467;-95
2023/11/29 07:06:39;;;;;;;1.33;1.00;;;22.50;57.50;;;;;;5095519;28;21083;-94
2023/11/29 07:09:06;;;;;;;1.10;0.90;;;22.50;57.50;;;;;;5097108;28;20857;-87
2023/11/29 07:11:36;;;;;;;1.20;0.97;;;22.60;57.50;;;;;;5095791;28;20440;-86
2023/11/29 07:14:03;;;;;;;1.10;1.00;;;22.60;57.30;;;;;;5095417;28;20493;-86
2023/11/29 07:16:30;;;;;;;1.23;1.13;;;22.70;57.50;;;;;;5095348;28;20527;-94
2023/11/29 07:18:56;;;;;;;1.83;1.00;;;22.60;57.30;;;;;;5096060;28;20927;-87
2023/11/29 07:21:23;;;;;;;2.03;1.00;;;22.60;57.30;;;;;;5095535;28;20431;-92
2023/11/29 07:23:51;;;;;;;1.43;1.00;;;22.60;57.30;;;;;;5095739;28;20452;-93
2023/11/29 07:26:18;;;;;;;1.23;1.13;;;22.60;57.40;;;;;;5095386;28;20484;-86
2023/11/29 07:28:47;;;;;;;1.10;0.97;;;22.60;57.40;;;;;;5094561;28;20450;-93
2023/11/29 07:31:14;;;;;;;1.20;1.10;;;22.60;57.30;;;;;;5095692;28;20808;-93
2023/11/29 07:33:41;;;;;;;2.90;1.00;;;22.60;57.40;;;;;;5095791;28;20442;-94
2023/11/29 07:36:10;;;;;;;1.20;0.97;;;22.60;57.40;;;;;;5095403;28;20446;-94
2023/11/29 07:38:37;;;;;;;1.13;1.00;;;22.60;57.40;;;;;;5095300;28;20440;-86
2023/11/29 07:41:05;;;;;;;1.73;1.10;;;22.60;57.40;;;;;;5095122;28;20438;-86
2023/11/29 07:43:32;;;;;;;1.30;1.20;;;22.60;57.40;;;;;;5094865;28;20918;-87
2023/11/29 07:46:01;;;;;;;1.30;0.90;;;22.70;57.40;;;;;;5095152;28;20480;-86
